sensor_id;sensor_type;location;lat;lon;timestamp;temperature;humidity
72206;DHT22;60111;48.286;7.812;2023-08-24T00:02:16;20.60;74.70
72206;DHT22;60111;48.286;7.812;2023-08-24T00:04:49;20.60;74.90
72206;DHT22;60111;48.286;7.812;2023-08-24T00:07:21;20.60;74.90
72206;DHT22;60111;48.286;7.812;2023-08-24T00:09:54;20.60;75.20
72206;DHT22;60111;48.286;7.812;2023-08-24T00:12:26;20.60;75.00
72206;DHT22;60111;48.286;7.812;2023-08-24T00:14:59;20.50;75.10
72206;DHT22;60111;48.286;7.812;2023-08-24T00:17:32;20.50;74.90
72206;DHT22;60111;48.286;7.812;2023-08-24T00:20:06;20.50;75.60
72206;DHT22;60111;48.286;7.812;2023-08-24T00:22:41;20.50;75.70
72206;DHT22;60111;48.286;7.812;2023-08-24T00:25:14;20.40;74.70
72206;DHT22;60111;48.286;7.812;2023-08-24T00:27:46;20.30;75.60
72206;DHT22;60111;48.286;7.812;2023-08-24T00:30:19;20.30;76.10
72206;DHT22;60111;48.286;7.812;2023-08-24T00:32:52;20.20;75.80
72206;DHT22;60111;48.286;7.812;2023-08-24T00:35:24;20.20;76.00
72206;DHT22;60111;48.286;7.812;2023-08-24T00:37:57;20.10;76.00
72206;DHT22;60111;48.286;7.812;2023-08-24T00:40:29;20.10;75.90
72206;DHT22;60111;48.286;7.812;2023-08-24T00:43:04;20.10;76.90
72206;DHT22;60111;48.286;7.812;2023-08-24T00:45:37;20.10;76.70
72206;DHT22;60111;48.286;7.812;2023-08-24T00:48:09;20.10;76.50
72206;DHT22;60111;48.286;7.812;2023-08-24T00:50:42;20.10;76.80
72206;DHT22;60111;48.286;7.812;2023-08-24T00:53:15;20.10;77.00
72206;DHT22;60111;48.286;7.812;2023-08-24T00:55:48;20.10;76.70
72206;DHT22;60111;48.286;7.812;2023-08-24T00:58:21;20.10;76.20
72206;DHT22;60111;48.286;7.812;2023-08-24T01:00:55;20.10;76.80
72206;DHT22;60111;48.286;7.812;2023-08-24T01:03:29;20.10;76.40
72206;DHT22;60111;48.286;7.812;2023-08-24T01:06:01;20.10;75.90
72206;DHT22;60111;48.286;7.812;2023-08-24T01:08:34;20.00;76.20
72206;DHT22;60111;48.286;7.812;2023-08-24T01:14:27;20.00;77.00
72206;DHT22;60111;48.286;7.812;2023-08-24T01:16:59;20.10;76.60
72206;DHT22;60111;48.286;7.812;2023-08-24T01:19:44;20.10;76.20
72206;DHT22;60111;48.286;7.812;2023-08-24T01:22:48;20.10;75.80
72206;DHT22;60111;48.286;7.812;2023-08-24T01:25:16;20.00;76.10
72206;DHT22;60111;48.286;7.812;2023-08-24T01:27:49;20.00;76.90
72206;DHT22;60111;48.286;7.812;2023-08-24T01:30:22;20.10;76.70
72206;DHT22;60111;48.286;7.812;2023-08-24T01:32:55;20.00;77.60
72206;DHT22;60111;48.286;7.812;2023-08-24T01:35:27;20.00;77.50
72206;DHT22;60111;48.286;7.812;2023-08-24T01:38:00;20.10;77.40
72206;DHT22;60111;48.286;7.812;2023-08-24T01:40:47;20.00;77.00
72206;DHT22;60111;48.286;7.812;2023-08-24T01:43:20;20.00;76.50
72206;DHT22;60111;48.286;7.812;2023-08-24T01:45:55;20.00;77.00
72206;DHT22;60111;48.286;7.812;2023-08-24T01:48:29;20.00;77.20
72206;DHT22;60111;48.286;7.812;2023-08-24T01:51:02;20.00;76.40
72206;DHT22;60111;48.286;7.812;2023-08-24T01:53:34;20.00;77.30
72206;DHT22;60111;48.286;7.812;2023-08-24T01:56:11;20.00;77.30
72206;DHT22;60111;48.286;7.812;2023-08-24T01:58:43;20.00;78.60
72206;DHT22;60111;48.286;7.812;2023-08-24T02:01:17;20.00;78.00
72206;DHT22;60111;48.286;7.812;2023-08-24T02:03:49;20.00;77.80
72206;DHT22;60111;48.286;7.812;2023-08-24T02:06:22;20.10;77.00
72206;DHT22;60111;48.286;7.812;2023-08-24T02:08:54;20.00;77.10
72206;DHT22;60111;48.286;7.812;2023-08-24T02:11:27;20.10;78.40
72206;DHT22;60111;48.286;7.812;2023-08-24T02:14:00;20.10;77.90
72206;DHT22;60111;48.286;7.812;2023-08-24T02:16:33;20.10;78.00
72206;DHT22;60111;48.286;7.812;2023-08-24T02:19:05;20.20;77.50
72206;DHT22;60111;48.286;7.812;2023-08-24T02:21:38;20.10;76.70
72206;DHT22;60111;48.286;7.812;2023-08-24T02:24:11;20.20;76.90
72206;DHT22;60111;48.286;7.812;2023-08-24T02:26:44;20.20;76.60
72206;DHT22;60111;48.286;7.812;2023-08-24T02:29:16;20.20;76.70
72206;DHT22;60111;48.286;7.812;2023-08-24T02:31:52;20.20;76.40
72206;DHT22;60111;48.286;7.812;2023-08-24T02:34:25;20.20;76.20
72206;DHT22;60111;48.286;7.812;2023-08-24T02:36:58;20.20;76.70
72206;DHT22;60111;48.286;7.812;2023-08-24T02:39:30;20.20;77.00
72206;DHT22;60111;48.286;7.812;2023-08-24T02:42:03;20.30;76.80
72206;DHT22;60111;48.286;7.812;2023-08-24T02:44:35;20.30;77.00
72206;DHT22;60111;48.286;7.812;2023-08-24T02:47:08;20.20;77.30
72206;DHT22;60111;48.286;7.812;2023-08-24T02:49:41;20.30;77.40
72206;DHT22;60111;48.286;7.812;2023-08-24T02:52:14;20.30;77.10
72206;DHT22;60111;48.286;7.812;2023-08-24T02:54:46;20.30;76.90
72206;DHT22;60111;48.286;7.812;2023-08-24T02:57:19;20.30;76.60
72206;DHT22;60111;48.286;7.812;2023-08-24T02:59:52;20.30;76.50
72206;DHT22;60111;48.286;7.812;2023-08-24T03:02:24;20.30;76.50
72206;DHT22;60111;48.286;7.812;2023-08-24T03:04:57;20.30;77.30
72206;DHT22;60111;48.286;7.812;2023-08-24T03:07:29;20.30;77.50
72206;DHT22;60111;48.286;7.812;2023-08-24T03:10:02;20.30;77.30
72206;DHT22;60111;48.286;7.812;2023-08-24T03:12:35;20.30;77.30
72206;DHT22;60111;48.286;7.812;2023-08-24T03:15:08;20.20;77.20
72206;DHT22;60111;48.286;7.812;2023-08-24T03:17:41;20.20;77.10
72206;DHT22;60111;48.286;7.812;2023-08-24T03:20:14;20.20;77.50
72206;DHT22;60111;48.286;7.812;2023-08-24T03:22:47;20.20;77.20
72206;DHT22;60111;48.286;7.812;2023-08-24T03:25:20;20.20;77.10
72206;DHT22;60111;48.286;7.812;2023-08-24T03:27:53;20.10;77.10
72206;DHT22;60111;48.286;7.812;2023-08-24T03:30:25;20.10;77.10
72206;DHT22;60111;48.286;7.812;2023-08-24T03:32:58;20.00;77.40
72206;DHT22;60111;48.286;7.812;2023-08-24T03:35:34;20.00;77.60
72206;DHT22;60111;48.286;7.812;2023-08-24T03:38:06;20.00;77.30
72206;DHT22;60111;48.286;7.812;2023-08-24T03:40:39;20.00;77.80
72206;DHT22;60111;48.286;7.812;2023-08-24T03:43:12;20.00;77.80
72206;DHT22;60111;48.286;7.812;2023-08-24T03:45:44;20.00;78.00
72206;DHT22;60111;48.286;7.812;2023-08-24T03:48:17;20.10;76.80
72206;DHT22;60111;48.286;7.812;2023-08-24T03:50:50;20.00;76.90
72206;DHT22;60111;48.286;7.812;2023-08-24T03:53:23;19.90;77.90
72206;DHT22;60111;48.286;7.812;2023-08-24T03:55:56;19.80;78.80
72206;DHT22;60111;48.286;7.812;2023-08-24T03:58:29;19.70;79.10
72206;DHT22;60111;48.286;7.812;2023-08-24T04:01:01;19.70;79.20
72206;DHT22;60111;48.286;7.812;2023-08-24T04:03:34;19.70;79.60
72206;DHT22;60111;48.286;7.812;2023-08-24T04:06:06;19.70;79.90
72206;DHT22;60111;48.286;7.812;2023-08-24T04:08:39;19.70;79.50
72206;DHT22;60111;48.286;7.812;2023-08-24T04:11:12;19.70;79.20
72206;DHT22;60111;48.286;7.812;2023-08-24T04:13:44;19.70;79.00
72206;DHT22;60111;48.286;7.812;2023-08-24T04:16:17;19.60;79.30
72206;DHT22;60111;48.286;7.812;2023-08-24T04:18:50;19.60;80.20
72206;DHT22;60111;48.286;7.812;2023-08-24T04:21:22;19.70;80.60
72206;DHT22;60111;48.286;7.812;2023-08-24T04:23:55;19.70;80.20
72206;DHT22;60111;48.286;7.812;2023-08-24T04:26:28;19.60;79.90
72206;DHT22;60111;48.286;7.812;2023-08-24T04:29:00;19.60;80.40
72206;DHT22;60111;48.286;7.812;2023-08-24T04:31:33;19.70;80.60
72206;DHT22;60111;48.286;7.812;2023-08-24T04:34:06;19.70;80.60
72206;DHT22;60111;48.286;7.812;2023-08-24T04:36:39;19.60;80.70
72206;DHT22;60111;48.286;7.812;2023-08-24T04:39:12;19.60;80.70
72206;DHT22;60111;48.286;7.812;2023-08-24T04:41:45;19.60;80.50
72206;DHT22;60111;48.286;7.812;2023-08-24T04:44:17;19.60;80.60
72206;DHT22;60111;48.286;7.812;2023-08-24T04:46:50;19.60;80.40
72206;DHT22;60111;48.286;7.812;2023-08-24T04:49:23;19.50;80.30
72206;DHT22;60111;48.286;7.812;2023-08-24T04:51:55;19.40;80.60
72206;DHT22;60111;48.286;7.812;2023-08-24T04:54:28;19.40;81.00
72206;DHT22;60111;48.286;7.812;2023-08-24T04:57:00;19.40;81.60
72206;DHT22;60111;48.286;7.812;2023-08-24T04:59:33;19.50;81.70
72206;DHT22;60111;48.286;7.812;2023-08-24T05:02:06;19.50;81.50
72206;DHT22;60111;48.286;7.812;2023-08-24T05:04:38;19.60;81.10
72206;DHT22;60111;48.286;7.812;2023-08-24T05:07:12;19.60;81.10
72206;DHT22;60111;48.286;7.812;2023-08-24T05:09:44;19.60;80.60
72206;DHT22;60111;48.286;7.812;2023-08-24T05:12:17;19.60;81.00
72206;DHT22;60111;48.286;7.812;2023-08-24T05:14:50;19.50;80.90
72206;DHT22;60111;48.286;7.812;2023-08-24T05:17:22;19.50;80.60
72206;DHT22;60111;48.286;7.812;2023-08-24T05:19:56;19.50;80.50
72206;DHT22;60111;48.286;7.812;2023-08-24T05:22:29;19.50;80.90
72206;DHT22;60111;48.286;7.812;2023-08-24T05:25:01;19.50;80.70
72206;DHT22;60111;48.286;7.812;2023-08-24T05:27:34;19.50;81.20
72206;DHT22;60111;48.286;7.812;2023-08-24T05:30:07;19.60;81.60
72206;DHT22;60111;48.286;7.812;2023-08-24T05:32:40;19.60;81.40
72206;DHT22;60111;48.286;7.812;2023-08-24T05:35:13;19.70;81.20
72206;DHT22;60111;48.286;7.812;2023-08-24T05:37:45;19.70;81.10
72206;DHT22;60111;48.286;7.812;2023-08-24T05:40:18;19.80;81.10
72206;DHT22;60111;48.286;7.812;2023-08-24T05:42:50;19.80;80.90
72206;DHT22;60111;48.286;7.812;2023-08-24T05:45:24;19.80;80.80
72206;DHT22;60111;48.286;7.812;2023-08-24T05:47:57;19.80;80.50
72206;DHT22;60111;48.286;7.812;2023-08-24T05:50:30;19.90;80.00
72206;DHT22;60111;48.286;7.812;2023-08-24T05:53:02;19.90;79.50
72206;DHT22;60111;48.286;7.812;2023-08-24T05:55:35;19.90;79.00
72206;DHT22;60111;48.286;7.812;2023-08-24T05:58:08;19.90;79.00
72206;DHT22;60111;48.286;7.812;2023-08-24T06:00:42;19.80;79.70
72206;DHT22;60111;48.286;7.812;2023-08-24T06:03:14;19.80;80.20
72206;DHT22;60111;48.286;7.812;2023-08-24T06:05:47;19.90;79.90
72206;DHT22;60111;48.286;7.812;2023-08-24T06:08:20;20.00;79.30
72206;DHT22;60111;48.286;7.812;2023-08-24T06:10:52;20.10;78.80
72206;DHT22;60111;48.286;7.812;2023-08-24T06:13:25;20.20;79.00
72206;DHT22;60111;48.286;7.812;2023-08-24T06:15:58;20.20;79.30
72206;DHT22;60111;48.286;7.812;2023-08-24T06:18:30;20.10;79.40
72206;DHT22;60111;48.286;7.812;2023-08-24T06:21:03;20.20;80.20
72206;DHT22;60111;48.286;7.812;2023-08-24T06:23:35;20.20;79.90
72206;DHT22;60111;48.286;7.812;2023-08-24T06:26:08;20.30;80.10
72206;DHT22;60111;48.286;7.812;2023-08-24T06:28:41;20.30;80.40
72206;DHT22;60111;48.286;7.812;2023-08-24T06:31:13;20.40;80.10
72206;DHT22;60111;48.286;7.812;2023-08-24T06:33:48;20.50;79.50
72206;DHT22;60111;48.286;7.812;2023-08-24T06:36:21;20.50;79.40
72206;DHT22;60111;48.286;7.812;2023-08-24T06:38:53;20.60;78.90
72206;DHT22;60111;48.286;7.812;2023-08-24T06:41:26;20.70;79.00
72206;DHT22;60111;48.286;7.812;2023-08-24T06:43:58;20.80;78.70
72206;DHT22;60111;48.286;7.812;2023-08-24T06:46:31;20.80;78.40
72206;DHT22;60111;48.286;7.812;2023-08-24T06:49:04;20.90;78.60
72206;DHT22;60111;48.286;7.812;2023-08-24T06:51:36;20.90;78.60
72206;DHT22;60111;48.286;7.812;2023-08-24T06:54:09;21.00;78.10
72206;DHT22;60111;48.286;7.812;2023-08-24T06:56:42;21.10;78.20
72206;DHT22;60111;48.286;7.812;2023-08-24T06:59:15;21.20;77.70
72206;DHT22;60111;48.286;7.812;2023-08-24T07:01:47;21.40;76.80
72206;DHT22;60111;48.286;7.812;2023-08-24T07:04:20;21.50;76.00
72206;DHT22;60111;48.286;7.812;2023-08-24T07:06:52;21.60;76.00
72206;DHT22;60111;48.286;7.812;2023-08-24T07:09:25;21.80;75.00
72206;DHT22;60111;48.286;7.812;2023-08-24T07:11:59;22.00;75.20
72206;DHT22;60111;48.286;7.812;2023-08-24T07:14:31;22.10;73.80
72206;DHT22;60111;48.286;7.812;2023-08-24T07:17:05;22.20;74.90
72206;DHT22;60111;48.286;7.812;2023-08-24T07:19:38;22.20;73.40
72206;DHT22;60111;48.286;7.812;2023-08-24T07:22:10;22.40;73.30
72206;DHT22;60111;48.286;7.812;2023-08-24T07:24:43;22.60;73.30
72206;DHT22;60111;48.286;7.812;2023-08-24T07:27:16;22.70;71.20
72206;DHT22;60111;48.286;7.812;2023-08-24T07:29:48;22.80;72.40
72206;DHT22;60111;48.286;7.812;2023-08-24T07:32:21;22.90;71.50
72206;DHT22;60111;48.286;7.812;2023-08-24T07:34:56;23.10;70.80
72206;DHT22;60111;48.286;7.812;2023-08-24T07:37:30;23.20;69.60
72206;DHT22;60111;48.286;7.812;2023-08-24T07:40:03;23.40;69.00
72206;DHT22;60111;48.286;7.812;2023-08-24T07:42:45;23.60;67.90
72206;DHT22;60111;48.286;7.812;2023-08-24T07:45:18;23.60;70.60
72206;DHT22;60111;48.286;7.812;2023-08-24T07:47:51;23.70;68.90
72206;DHT22;60111;48.286;7.812;2023-08-24T07:50:23;23.90;69.00
72206;DHT22;60111;48.286;7.812;2023-08-24T07:52:56;24.00;68.00
72206;DHT22;60111;48.286;7.812;2023-08-24T07:55:28;24.10;66.40
72206;DHT22;60111;48.286;7.812;2023-08-24T07:58:01;24.10;66.60
72206;DHT22;60111;48.286;7.812;2023-08-24T08:00:35;24.10;67.00
72206;DHT22;60111;48.286;7.812;2023-08-24T08:03:08;24.20;67.40
72206;DHT22;60111;48.286;7.812;2023-08-24T08:05:40;24.10;66.70
72206;DHT22;60111;48.286;7.812;2023-08-24T08:08:16;24.00;66.50
72206;DHT22;60111;48.286;7.812;2023-08-24T08:10:57;24.10;66.90
72206;DHT22;60111;48.286;7.812;2023-08-24T08:13:25;24.10;66.30
72206;DHT22;60111;48.286;7.812;2023-08-24T08:16:03;24.10;67.00
72206;DHT22;60111;48.286;7.812;2023-08-24T08:18:36;24.10;65.60
72206;DHT22;60111;48.286;7.812;2023-08-24T08:21:15;24.10;65.60
72206;DHT22;60111;48.286;7.812;2023-08-24T08:23:44;24.00;65.00
72206;DHT22;60111;48.286;7.812;2023-08-24T08:26:17;24.10;65.40
72206;DHT22;60111;48.286;7.812;2023-08-24T08:28:49;24.30;66.70
72206;DHT22;60111;48.286;7.812;2023-08-24T08:31:22;24.40;66.20
72206;DHT22;60111;48.286;7.812;2023-08-24T08:33:55;24.50;66.00
72206;DHT22;60111;48.286;7.812;2023-08-24T08:36:27;24.70;66.10
72206;DHT22;60111;48.286;7.812;2023-08-24T08:39:00;24.80;66.60
72206;DHT22;60111;48.286;7.812;2023-08-24T08:41:42;25.00;65.10
72206;DHT22;60111;48.286;7.812;2023-08-24T08:44:12;25.10;66.10
72206;DHT22;60111;48.286;7.812;2023-08-24T08:46:46;25.30;63.90
72206;DHT22;60111;48.286;7.812;2023-08-24T08:49:20;25.40;63.90
72206;DHT22;60111;48.286;7.812;2023-08-24T08:51:53;25.50;63.30
72206;DHT22;60111;48.286;7.812;2023-08-24T08:54:26;25.60;62.40
72206;DHT22;60111;48.286;7.812;2023-08-24T08:56:59;25.90;62.40
72206;DHT22;60111;48.286;7.812;2023-08-24T08:59:33;26.10;61.80
72206;DHT22;60111;48.286;7.812;2023-08-24T09:02:06;26.10;60.90
72206;DHT22;60111;48.286;7.812;2023-08-24T09:04:42;26.20;61.20
72206;DHT22;60111;48.286;7.812;2023-08-24T09:07:16;26.40;60.60
72206;DHT22;60111;48.286;7.812;2023-08-24T09:09:49;26.60;60.40
72206;DHT22;60111;48.286;7.812;2023-08-24T09:12:22;26.80;58.40
72206;DHT22;60111;48.286;7.812;2023-08-24T09:14:55;26.80;58.00
72206;DHT22;60111;48.286;7.812;2023-08-24T09:17:27;26.70;59.50
72206;DHT22;60111;48.286;7.812;2023-08-24T09:20:05;26.80;57.30
72206;DHT22;60111;48.286;7.812;2023-08-24T09:22:37;26.90;57.60
72206;DHT22;60111;48.286;7.812;2023-08-24T09:25:14;26.90;59.00
72206;DHT22;60111;48.286;7.812;2023-08-24T09:27:46;27.10;59.40
72206;DHT22;60111;48.286;7.812;2023-08-24T09:30:20;27.20;57.40
72206;DHT22;60111;48.286;7.812;2023-08-24T09:32:52;27.20;59.60
72206;DHT22;60111;48.286;7.812;2023-08-24T09:35:27;27.40;58.60
72206;DHT22;60111;48.286;7.812;2023-08-24T09:37:58;27.50;58.20
72206;DHT22;60111;48.286;7.812;2023-08-24T09:40:31;27.50;58.40
72206;DHT22;60111;48.286;7.812;2023-08-24T09:43:03;27.30;59.30
72206;DHT22;60111;48.286;7.812;2023-08-24T09:45:37;27.20;59.40
72206;DHT22;60111;48.286;7.812;2023-08-24T09:48:09;27.20;59.60
72206;DHT22;60111;48.286;7.812;2023-08-24T09:50:45;27.30;58.60
72206;DHT22;60111;48.286;7.812;2023-08-24T09:53:23;27.50;59.10
72206;DHT22;60111;48.286;7.812;2023-08-24T09:56:01;27.70;56.20
72206;DHT22;60111;48.286;7.812;2023-08-24T09:58:34;27.80;56.90
72206;DHT22;60111;48.286;7.812;2023-08-24T10:01:07;28.00;56.00
72206;DHT22;60111;48.286;7.812;2023-08-24T10:03:40;28.20;55.80
72206;DHT22;60111;48.286;7.812;2023-08-24T10:06:14;28.10;57.30
72206;DHT22;60111;48.286;7.812;2023-08-24T10:08:55;28.10;56.20
72206;DHT22;60111;48.286;7.812;2023-08-24T10:11:28;28.20;57.40
72206;DHT22;60111;48.286;7.812;2023-08-24T10:14:22;28.40;56.10
72206;DHT22;60111;48.286;7.812;2023-08-24T10:17:14;28.70;55.60
72206;DHT22;60111;48.286;7.812;2023-08-24T10:19:47;28.60;54.20
72206;DHT22;60111;48.286;7.812;2023-08-24T10:22:20;28.30;54.80
72206;DHT22;60111;48.286;7.812;2023-08-24T10:24:54;28.20;56.10
72206;DHT22;60111;48.286;7.812;2023-08-24T10:27:30;28.20;55.60
72206;DHT22;60111;48.286;7.812;2023-08-24T10:30:03;28.10;56.10
72206;DHT22;60111;48.286;7.812;2023-08-24T10:32:37;28.10;55.60
72206;DHT22;60111;48.286;7.812;2023-08-24T10:35:11;28.20;58.40
72206;DHT22;60111;48.286;7.812;2023-08-24T10:37:46;28.40;56.40
72206;DHT22;60111;48.286;7.812;2023-08-24T10:40:30;28.60;54.40
72206;DHT22;60111;48.286;7.812;2023-08-24T10:42:57;28.60;54.20
72206;DHT22;60111;48.286;7.812;2023-08-24T10:48:23;28.50;55.30
72206;DHT22;60111;48.286;7.812;2023-08-24T10:51:20;28.80;56.00
72206;DHT22;60111;48.286;7.812;2023-08-24T10:53:58;29.20;57.10
72206;DHT22;60111;48.286;7.812;2023-08-24T10:56:38;29.60;54.30
72206;DHT22;60111;48.286;7.812;2023-08-24T10:59:16;29.90;53.80
72206;DHT22;60111;48.286;7.812;2023-08-24T11:01:57;30.20;54.20
72206;DHT22;60111;48.286;7.812;2023-08-24T11:04:30;30.30;52.70
72206;DHT22;60111;48.286;7.812;2023-08-24T11:07:03;30.30;51.20
72206;DHT22;60111;48.286;7.812;2023-08-24T11:09:46;30.20;51.30
72206;DHT22;60111;48.286;7.812;2023-08-24T11:12:21;30.40;52.40
72206;DHT22;60111;48.286;7.812;2023-08-24T11:14:54;30.60;50.40
72206;DHT22;60111;48.286;7.812;2023-08-24T11:17:30;30.50;50.90
72206;DHT22;60111;48.286;7.812;2023-08-24T11:20:06;30.40;51.30
72206;DHT22;60111;48.286;7.812;2023-08-24T11:22:39;30.30;52.80
72206;DHT22;60111;48.286;7.812;2023-08-24T11:25:12;30.40;52.90
72206;DHT22;60111;48.286;7.812;2023-08-24T11:27:44;30.60;52.70
72206;DHT22;60111;48.286;7.812;2023-08-24T11:30:17;30.60;50.70
72206;DHT22;60111;48.286;7.812;2023-08-24T11:32:53;30.40;51.20
72206;DHT22;60111;48.286;7.812;2023-08-24T11:35:26;30.30;52.00
72206;DHT22;60111;48.286;7.812;2023-08-24T11:37:59;30.30;52.30
72206;DHT22;60111;48.286;7.812;2023-08-24T11:40:32;30.50;50.40
72206;DHT22;60111;48.286;7.812;2023-08-24T11:43:05;30.50;50.90
72206;DHT22;60111;48.286;7.812;2023-08-24T11:45:38;30.50;51.80
72206;DHT22;60111;48.286;7.812;2023-08-24T11:48:13;30.50;51.50
72206;DHT22;60111;48.286;7.812;2023-08-24T11:50:46;30.30;52.00
72206;DHT22;60111;48.286;7.812;2023-08-24T11:53:20;30.20;51.80
72206;DHT22;60111;48.286;7.812;2023-08-24T11:55:55;30.20;53.00
72206;DHT22;60111;48.286;7.812;2023-08-24T11:58:27;30.30;51.80
72206;DHT22;60111;48.286;7.812;2023-08-24T12:01:02;30.40;53.50
72206;DHT22;60111;48.286;7.812;2023-08-24T12:03:35;30.40;51.70
72206;DHT22;60111;48.286;7.812;2023-08-24T12:06:16;30.50;51.40
72206;DHT22;60111;48.286;7.812;2023-08-24T12:08:49;30.40;51.30
72206;DHT22;60111;48.286;7.812;2023-08-24T12:11:22;30.40;52.70
72206;DHT22;60111;48.286;7.812;2023-08-24T12:13:58;30.60;52.00
72206;DHT22;60111;48.286;7.812;2023-08-24T12:16:32;30.80;51.90
72206;DHT22;60111;48.286;7.812;2023-08-24T12:19:06;30.90;52.00
72206;DHT22;60111;48.286;7.812;2023-08-24T12:21:43;30.90;52.00
72206;DHT22;60111;48.286;7.812;2023-08-24T12:24:17;31.00;53.30
72206;DHT22;60111;48.286;7.812;2023-08-24T12:26:57;31.30;52.40
72206;DHT22;60111;48.286;7.812;2023-08-24T12:29:30;31.60;51.60
72206;DHT22;60111;48.286;7.812;2023-08-24T12:32:03;31.70;49.30
72206;DHT22;60111;48.286;7.812;2023-08-24T12:34:36;31.50;50.10
72206;DHT22;60111;48.286;7.812;2023-08-24T12:37:09;31.50;50.10
72206;DHT22;60111;48.286;7.812;2023-08-24T12:39:43;31.60;52.50
72206;DHT22;60111;48.286;7.812;2023-08-24T12:42:16;31.80;50.90
72206;DHT22;60111;48.286;7.812;2023-08-24T12:44:48;32.00;49.70
72206;DHT22;60111;48.286;7.812;2023-08-24T12:47:21;32.10;50.40
72206;DHT22;60111;48.286;7.812;2023-08-24T12:49:54;32.20;50.60
72206;DHT22;60111;48.286;7.812;2023-08-24T12:52:26;32.30;51.20
72206;DHT22;60111;48.286;7.812;2023-08-24T12:54:59;32.50;51.70
72206;DHT22;60111;48.286;7.812;2023-08-24T12:57:32;32.70;48.80
72206;DHT22;60111;48.286;7.812;2023-08-24T13:00:05;32.70;49.50
72206;DHT22;60111;48.286;7.812;2023-08-24T13:02:39;32.70;48.10
72206;DHT22;60111;48.286;7.812;2023-08-24T13:05:12;32.80;48.40
72206;DHT22;60111;48.286;7.812;2023-08-24T13:07:45;32.80;49.40
72206;DHT22;60111;48.286;7.812;2023-08-24T13:10:17;32.80;49.50
72206;DHT22;60111;48.286;7.812;2023-08-24T13:12:50;32.80;47.10
72206;DHT22;60111;48.286;7.812;2023-08-24T13:15:22;32.70;45.40
72206;DHT22;60111;48.286;7.812;2023-08-24T13:17:55;32.50;45.60
72206;DHT22;60111;48.286;7.812;2023-08-24T13:20:28;32.30;46.40
72206;DHT22;60111;48.286;7.812;2023-08-24T13:23:01;32.20;47.30
72206;DHT22;60111;48.286;7.812;2023-08-24T13:25:33;32.10;46.70
72206;DHT22;60111;48.286;7.812;2023-08-24T13:28:06;32.00;47.10
72206;DHT22;60111;48.286;7.812;2023-08-24T13:30:39;31.90;46.50
72206;DHT22;60111;48.286;7.812;2023-08-24T13:33:12;31.90;47.20
72206;DHT22;60111;48.286;7.812;2023-08-24T13:35:46;31.80;46.70
72206;DHT22;60111;48.286;7.812;2023-08-24T13:38:19;32.00;47.20
72206;DHT22;60111;48.286;7.812;2023-08-24T13:40:52;32.20;46.50
72206;DHT22;60111;48.286;7.812;2023-08-24T13:43:24;32.20;46.90
72206;DHT22;60111;48.286;7.812;2023-08-24T13:45:57;32.20;47.50
72206;DHT22;60111;48.286;7.812;2023-08-24T13:48:29;32.10;46.80
72206;DHT22;60111;48.286;7.812;2023-08-24T13:51:04;32.10;48.40
72206;DHT22;60111;48.286;7.812;2023-08-24T13:53:36;32.10;47.00
72206;DHT22;60111;48.286;7.812;2023-08-24T13:56:09;32.20;48.50
72206;DHT22;60111;48.286;7.812;2023-08-24T13:58:42;32.20;47.80
72206;DHT22;60111;48.286;7.812;2023-08-24T14:01:15;32.30;49.40
72206;DHT22;60111;48.286;7.812;2023-08-24T14:03:47;32.50;49.50
72206;DHT22;60111;48.286;7.812;2023-08-24T14:06:21;32.60;48.50
72206;DHT22;60111;48.286;7.812;2023-08-24T14:08:53;32.70;48.60
72206;DHT22;60111;48.286;7.812;2023-08-24T14:11:27;32.70;49.00
72206;DHT22;60111;48.286;7.812;2023-08-24T14:13:59;32.60;50.20
72206;DHT22;60111;48.286;7.812;2023-08-24T14:16:32;32.40;49.40
72206;DHT22;60111;48.286;7.812;2023-08-24T14:19:04;32.30;49.30
72206;DHT22;60111;48.286;7.812;2023-08-24T14:21:37;32.10;50.30
72206;DHT22;60111;48.286;7.812;2023-08-24T14:24:10;31.90;50.90
72206;DHT22;60111;48.286;7.812;2023-08-24T14:26:43;31.90;51.10
72206;DHT22;60111;48.286;7.812;2023-08-24T14:29:19;32.10;51.30
72206;DHT22;60111;48.286;7.812;2023-08-24T14:31:52;32.30;51.30
72206;DHT22;60111;48.286;7.812;2023-08-24T14:34:24;32.50;49.10
72206;DHT22;60111;48.286;7.812;2023-08-24T14:36:57;32.70;49.10
72206;DHT22;60111;48.286;7.812;2023-08-24T14:39:30;32.70;48.90
72206;DHT22;60111;48.286;7.812;2023-08-24T14:42:03;32.70;50.40
72206;DHT22;60111;48.286;7.812;2023-08-24T14:44:36;32.70;50.60
72206;DHT22;60111;48.286;7.812;2023-08-24T14:47:08;32.70;50.00
72206;DHT22;60111;48.286;7.812;2023-08-24T14:49:41;32.50;50.60
72206;DHT22;60111;48.286;7.812;2023-08-24T14:52:14;32.40;50.40
72206;DHT22;60111;48.286;7.812;2023-08-24T14:54:46;32.30;51.00
72206;DHT22;60111;48.286;7.812;2023-08-24T14:57:19;32.10;50.70
72206;DHT22;60111;48.286;7.812;2023-08-24T14:59:52;32.00;51.10
72206;DHT22;60111;48.286;7.812;2023-08-24T15:02:25;31.80;51.60
72206;DHT22;60111;48.286;7.812;2023-08-24T15:04:58;31.80;52.00
72206;DHT22;60111;48.286;7.812;2023-08-24T15:07:31;31.70;52.60
72206;DHT22;60111;48.286;7.812;2023-08-24T15:10:04;31.60;52.80
72206;DHT22;60111;48.286;7.812;2023-08-24T15:12:37;31.50;54.40
72206;DHT22;60111;48.286;7.812;2023-08-24T15:15:10;31.40;52.80
72206;DHT22;60111;48.286;7.812;2023-08-24T15:17:44;31.30;52.60
72206;DHT22;60111;48.286;7.812;2023-08-24T15:20:17;31.10;52.40
72206;DHT22;60111;48.286;7.812;2023-08-24T15:22:50;30.90;53.10
72206;DHT22;60111;48.286;7.812;2023-08-24T15:25:22;30.70;53.00
72206;DHT22;60111;48.286;7.812;2023-08-24T15:27:55;30.50;53.70
72206;DHT22;60111;48.286;7.812;2023-08-24T15:30:27;30.40;53.60
72206;DHT22;60111;48.286;7.812;2023-08-24T15:33:00;30.20;53.40
72206;DHT22;60111;48.286;7.812;2023-08-24T15:35:33;30.10;54.10
72206;DHT22;60111;48.286;7.812;2023-08-24T15:38:05;30.10;54.60
72206;DHT22;60111;48.286;7.812;2023-08-24T15:40:38;30.00;54.00
72206;DHT22;60111;48.286;7.812;2023-08-24T15:43:11;29.90;54.90
72206;DHT22;60111;48.286;7.812;2023-08-24T15:45:43;29.90;55.30
72206;DHT22;60111;48.286;7.812;2023-08-24T15:48:16;29.80;55.40
72206;DHT22;60111;48.286;7.812;2023-08-24T15:50:49;29.70;55.40
72206;DHT22;60111;48.286;7.812;2023-08-24T15:53:21;29.60;56.40
72206;DHT22;60111;48.286;7.812;2023-08-24T15:55:56;29.60;56.30
72206;DHT22;60111;48.286;7.812;2023-08-24T15:58:29;29.60;56.30
72206;DHT22;60111;48.286;7.812;2023-08-24T16:01:02;29.50;56.90
72206;DHT22;60111;48.286;7.812;2023-08-24T16:03:36;29.50;56.90
72206;DHT22;60111;48.286;7.812;2023-08-24T16:06:09;29.40;56.80
72206;DHT22;60111;48.286;7.812;2023-08-24T16:08:41;29.30;56.50
72206;DHT22;60111;48.286;7.812;2023-08-24T16:11:14;29.20;56.90
72206;DHT22;60111;48.286;7.812;2023-08-24T16:13:47;29.20;57.60
72206;DHT22;60111;48.286;7.812;2023-08-24T16:16:19;29.20;57.20